createdAt,value
2023-06-01T00:02:31.563Z,76.30
2023-06-01T00:05:04.497Z,76.60
2023-06-01T00:07:37.495Z,77.00
2023-06-01T00:10:10.751Z,77.80
2023-06-01T00:12:44.326Z,78.30
2023-06-01T00:15:16.864Z,78.20
2023-06-01T00:17:52.587Z,78.60
2023-06-01T00:20:25.743Z,79.40
2023-06-01T00:23:00.513Z,80.10
2023-06-01T00:25:33.055Z,80.40
2023-06-01T00:28:05.986Z,81.00
2023-06-01T00:30:38.632Z,80.60
2023-06-01T00:33:11.708Z,80.80
2023-06-01T00:35:44.261Z,81.10
2023-06-01T00:38:17.182Z,80.80
2023-06-01T00:40:51.301Z,81.20
2023-06-01T00:43:24.129Z,81.30
2023-06-01T00:45:56.798Z,81.30
2023-06-01T00:48:29.921Z,82.70
2023-06-01T00:51:02.863Z,82.60
2023-06-01T00:53:36.179Z,82.60
2023-06-01T00:56:10.102Z,83.30
2023-06-01T00:58:43.318Z,83.00
2023-06-01T01:01:23.976Z,83.80
2023-06-01T01:04:01.953Z,84.20
2023-06-01T01:07:04.872Z,84.40
2023-06-01T01:09:46.060Z,85.40
2023-06-01T01:12:30.929Z,85.70
2023-06-01T01:15:13.904Z,86.10
2023-06-01T01:17:52.480Z,87.00
2023-06-01T01:20:49.377Z,88.60
2023-06-01T01:23:46.396Z,89.20
2023-06-01T01:26:54.444Z,90.00
2023-06-01T01:29:29.893Z,90.50
2023-06-01T01:32:05.013Z,91.00
2023-06-01T01:34:39.875Z,91.40
2023-06-01T01:37:12.902Z,92.00
2023-06-01T01:39:45.439Z,92.70
2023-06-01T01:42:18.351Z,93.70
2023-06-01T01:44:50.952Z,95.40
2023-06-01T01:47:37.484Z,96.20
2023-06-01T01:50:13.274Z,96.80
2023-06-01T01:52:47.598Z,97.40
2023-06-01T01:55:25.000Z,98.30
2023-06-01T01:57:59.260Z,98.70
2023-06-01T02:00:33.024Z,99.80
2023-06-01T02:03:15.823Z,99.90
2023-06-01T02:05:48.552Z,99.90
2023-06-01T02:08:21.467Z,99.90
2023-06-01T02:10:54.000Z,99.90
2023-06-01T02:13:26.769Z,99.90
2023-06-01T02:15:59.294Z,99.90
2023-06-01T02:18:33.219Z,99.90
2023-06-01T02:21:06.397Z,99.90
2023-06-01T02:23:40.777Z,99.90
2023-06-01T02:26:13.413Z,99.90
2023-06-01T02:28:46.266Z,99.90
2023-06-01T02:31:18.952Z,99.90
2023-06-01T02:33:52.121Z,99.90
2023-06-01T02:36:25.812Z,99.90
2023-06-01T02:38:59.003Z,99.90
2023-06-01T02:41:31.538Z,99.90
2023-06-01T02:44:04.431Z,99.90
2023-06-01T02:46:37.039Z,99.90
2023-06-01T02:49:09.935Z,99.90
2023-06-01T02:51:42.444Z,99.90
2023-06-01T02:54:15.597Z,99.90
2023-06-01T02:56:48.113Z,99.90
2023-06-01T02:59:21.037Z,99.90
2023-06-01T03:01:53.999Z,99.90
2023-06-01T03:04:30.063Z,99.90
2023-06-01T03:07:02.904Z,99.90
2023-06-01T03:09:35.813Z,99.90
2023-06-01T03:12:08.712Z,99.90
2023-06-01T03:14:41.560Z,99.90
2023-06-01T03:17:14.083Z,99.90
2023-06-01T03:19:46.877Z,99.90
2023-06-01T03:22:19.505Z,99.90
2023-06-01T03:24:53.784Z,99.90
2023-06-01T03:27:26.418Z,99.90
2023-06-01T03:30:02.785Z,99.90
2023-06-01T03:32:36.093Z,99.90
2023-06-01T03:35:09.666Z,99.90
2023-06-01T03:37:43.379Z,99.90
2023-06-01T03:40:16.239Z,99.90
2023-06-01T03:42:49.478Z,99.90
2023-06-01T03:45:22.349Z,99.90
2023-06-01T03:47:54.930Z,99.90
2023-06-01T03:50:27.745Z,99.90
2023-06-01T03:53:00.456Z,99.90
2023-06-01T03:55:33.945Z,99.90
2023-06-01T03:58:08.302Z,99.90
2023-06-01T04:00:41.189Z,99.60
2023-06-01T04:03:14.476Z,99.60
2023-06-01T04:05:50.956Z,98.60
2023-06-01T04:08:23.800Z,97.90
2023-06-01T04:10:56.970Z,97.10
2023-06-01T04:13:30.768Z,96.30
2023-06-01T04:16:04.907Z,96.20
2023-06-01T04:18:37.583Z,95.40
2023-06-01T04:21:10.431Z,95.10
2023-06-01T04:23:43.576Z,94.60
2023-06-01T04:26:17.009Z,94.30
2023-06-01T04:28:49.788Z,94.00
2023-06-01T04:31:23.209Z,94.30
2023-06-01T04:33:57.444Z,94.40
2023-06-01T04:36:30.599Z,94.80
2023-06-01T04:39:03.600Z,95.00
2023-06-01T04:41:36.802Z,95.20
2023-06-01T04:44:09.737Z,95.40
2023-06-01T04:46:45.412Z,95.60
2023-06-01T04:49:19.732Z,95.80
2023-06-01T04:51:52.865Z,95.90
2023-06-01T04:54:25.383Z,96.00
2023-06-01T04:56:58.199Z,96.20
2023-06-01T04:59:30.848Z,96.30
2023-06-01T05:02:03.977Z,96.50
2023-06-01T05:04:36.650Z,96.60
2023-06-01T05:07:09.536Z,96.50
2023-06-01T05:09:42.119Z,96.20
2023-06-01T05:12:15.140Z,95.90
2023-06-01T05:14:47.673Z,95.80
2023-06-01T05:17:20.686Z,95.70
2023-06-01T05:19:53.313Z,95.70
2023-06-01T05:22:26.648Z,95.30
2023-06-01T05:24:59.180Z,95.30
2023-06-01T05:27:32.039Z,95.20
2023-06-01T05:30:05.560Z,95.30
2023-06-01T05:32:38.442Z,95.20
2023-06-01T05:35:11.616Z,95.40
2023-06-01T05:37:46.938Z,95.20
2023-06-01T05:40:19.862Z,95.20
2023-06-01T05:42:55.304Z,95.60
2023-06-01T05:45:27.977Z,95.50
2023-06-01T05:48:41.936Z,95.90
2023-06-01T05:51:41.411Z,95.70
2023-06-01T05:54:20.233Z,96.40
2023-06-01T05:56:52.876Z,96.90
2023-06-01T05:59:25.839Z,96.80
2023-06-01T06:01:59.020Z,96.30
2023-06-01T06:04:31.962Z,96.60
2023-06-01T06:07:04.778Z,96.80
2023-06-01T06:09:38.079Z,97.00
2023-06-01T06:12:10.837Z,97.40
2023-06-01T06:14:44.819Z,97.10
2023-06-01T06:17:22.174Z,97.00
2023-06-01T06:19:55.056Z,96.80
2023-06-01T06:22:27.675Z,96.80
2023-06-01T06:25:00.592Z,96.10
2023-06-01T06:27:33.120Z,96.80
2023-06-01T06:30:08.456Z,96.50
2023-06-01T06:32:41.215Z,96.50
2023-06-01T06:35:14.412Z,96.20
2023-06-01T06:37:47.088Z,95.60
2023-06-01T06:40:21.286Z,95.40
2023-06-01T06:42:53.906Z,95.60
2023-06-01T06:45:26.738Z,95.40
2023-06-01T06:47:59.340Z,95.70
2023-06-01T06:50:32.362Z,95.00
2023-06-01T06:53:05.169Z,94.80
2023-06-01T06:55:38.234Z,94.80
2023-06-01T06:58:11.967Z,94.70
2023-06-01T07:00:44.786Z,95.00
2023-06-01T07:03:18.175Z,94.10
2023-06-01T07:05:51.173Z,93.60
2023-06-01T07:08:23.745Z,93.90
2023-06-01T07:10:57.356Z,94.10
2023-06-01T07:13:29.900Z,93.70
2023-06-01T07:16:04.285Z,93.70
2023-06-01T07:18:36.849Z,93.50
2023-06-01T07:21:09.652Z,93.00
2023-06-01T07:23:44.310Z,93.00
2023-06-01T07:26:17.149Z,92.70
2023-06-01T07:28:54.218Z,92.70
2023-06-01T07:31:28.672Z,92.10
2023-06-01T07:34:01.261Z,92.30
2023-06-01T07:36:38.288Z,92.20
2023-06-01T07:39:11.437Z,91.90
2023-06-01T07:41:47.309Z,90.90
2023-06-01T07:44:20.240Z,90.80
2023-06-01T07:46:53.132Z,90.60
2023-06-01T07:49:25.746Z,90.40
2023-06-01T07:51:59.905Z,90.10
2023-06-01T07:54:34.154Z,89.80
2023-06-01T07:57:07.397Z,88.90
2023-06-01T07:59:40.312Z,87.90
2023-06-01T08:02:14.593Z,86.60
2023-06-01T08:04:48.155Z,87.50
2023-06-01T08:07:21.081Z,86.00
2023-06-01T08:09:54.429Z,85.20
2023-06-01T08:12:27.403Z,84.80
2023-06-01T08:15:00.267Z,83.90
2023-06-01T08:17:33.641Z,82.70
2023-06-01T08:20:12.236Z,82.40
2023-06-01T08:22:45.242Z,82.30
2023-06-01T08:25:19.176Z,82.60
2023-06-01T08:27:52.758Z,82.50
2023-06-01T08:30:28.184Z,82.40
2023-06-01T08:33:03.893Z,80.90
2023-06-01T08:38:10.100Z,82.60
2023-06-01T08:40:42.898Z,82.80
2023-06-01T08:43:23.745Z,83.00
2023-06-01T08:45:57.938Z,82.60
2023-06-01T08:48:32.603Z,81.80
2023-06-01T08:51:05.617Z,82.80
2023-06-01T08:53:43.618Z,82.00
2023-06-01T08:56:16.293Z,82.70
2023-06-01T08:58:51.310Z,81.60
2023-06-01T09:01:24.433Z,81.00
2023-06-01T09:03:57.422Z,81.40
2023-06-01T09:06:30.020Z,82.20
2023-06-01T09:09:03.279Z,80.60
2023-06-01T09:11:36.009Z,79.90
2023-06-01T09:14:23.319Z,79.30
2023-06-01T09:16:56.147Z,78.90
2023-06-01T09:19:43.429Z,80.10
2023-06-01T09:22:16.002Z,79.30
2023-06-01T09:24:59.328Z,80.20
2023-06-01T09:27:53.075Z,79.10
2023-06-01T09:30:37.906Z,79.90
2023-06-01T09:33:20.860Z,78.50
2023-06-01T09:35:53.767Z,77.90
2023-06-01T09:38:27.684Z,77.60
2023-06-01T09:41:03.397Z,77.90
2023-06-01T09:43:38.985Z,77.70
2023-06-01T09:46:15.241Z,77.30
2023-06-01T09:48:48.038Z,76.70
2023-06-01T09:51:30.453Z,76.80
2023-06-01T09:54:03.361Z,77.00
2023-06-01T09:56:45.804Z,76.90
2023-06-01T09:59:18.503Z,75.30
2023-06-01T10:01:54.284Z,75.80
2023-06-01T10:04:28.542Z,77.00
2023-06-01T10:07:04.287Z,76.60
2023-06-01T10:09:40.121Z,76.60
2023-06-01T10:12:13.505Z,76.10
2023-06-01T10:14:46.344Z,74.80
2023-06-01T10:17:20.709Z,75.60
2023-06-01T10:19:53.853Z,75.70
2023-06-01T10:22:26.735Z,76.00
2023-06-01T10:25:01.637Z,75.60
2023-06-01T10:27:44.750Z,74.90
2023-06-01T10:30:17.500Z,75.70
2023-06-01T10:32:51.037Z,73.40
2023-06-01T10:35:33.262Z,74.50
2023-06-01T10:38:13.882Z,74.00
2023-06-01T10:40:49.020Z,74.30
2023-06-01T10:43:38.845Z,71.60
2023-06-01T10:46:37.480Z,68.90
2023-06-01T10:49:10.642Z,70.70
2023-06-01T10:51:43.264Z,71.50
2023-06-01T10:54:34.202Z,70.80
2023-06-01T10:57:21.485Z,72.50
2023-06-01T11:00:11.661Z,71.60
2023-06-01T11:02:56.927Z,69.90
2023-06-01T11:05:52.835Z,69.50
2023-06-01T11:08:30.650Z,70.20
2023-06-01T11:11:05.070Z,70.80
2023-06-01T11:13:38.631Z,71.80
2023-06-01T11:16:11.837Z,69.80
2023-06-01T11:18:59.792Z,69.50
2023-06-01T11:21:41.494Z,69.70
2023-06-01T11:24:17.093Z,69.90
2023-06-01T11:26:51.657Z,70.40
2023-06-01T11:29:26.711Z,70.30
2023-06-01T11:32:02.232Z,71.10
2023-06-01T11:34:42.830Z,71.10
2023-06-01T11:37:20.719Z,71.20
2023-06-01T11:39:53.342Z,71.00
2023-06-01T11:42:37.504Z,71.10
2023-06-01T11:45:16.629Z,70.90
2023-06-01T11:47:49.652Z,70.90
2023-06-01T11:50:28.295Z,71.40
2023-06-01T11:53:01.631Z,71.10
2023-06-01T11:55:34.330Z,70.70
2023-06-01T11:58:07.822Z,70.80
2023-06-01T12:00:40.611Z,71.80
2023-06-01T12:03:29.297Z,70.90
2023-06-01T12:06:03.508Z,69.70
2023-06-01T12:08:37.040Z,69.40
2023-06-01T12:11:09.840Z,68.70
2023-06-01T12:13:43.679Z,68.30
2023-06-01T12:16:22.236Z,68.90
2023-06-01T12:18:56.205Z,68.80
2023-06-01T12:21:28.752Z,68.90
2023-06-01T12:24:02.944Z,67.80
2023-06-01T12:26:38.588Z,68.20
2023-06-01T12:29:11.456Z,68.70
2023-06-01T12:31:56.717Z,68.10
2023-06-01T12:34:29.605Z,68.40
2023-06-01T12:37:16.536Z,67.90
2023-06-01T12:40:02.417Z,67.80
2023-06-01T12:42:40.224Z,66.40
2023-06-01T12:45:13.151Z,66.00
2023-06-01T12:47:46.442Z,66.30
2023-06-01T12:50:19.370Z,63.90
2023-06-01T12:52:52.019Z,62.90
2023-06-01T12:55:24.893Z,62.60
2023-06-01T12:57:57.712Z,64.00
2023-06-01T13:00:39.283Z,60.60
2023-06-01T13:03:23.654Z,62.40
2023-06-01T13:05:57.029Z,62.60
2023-06-01T13:08:29.703Z,62.80
2023-06-01T13:11:02.626Z,62.90
2023-06-01T13:13:35.281Z,64.40
2023-06-01T13:16:08.729Z,65.20
2023-06-01T13:18:41.791Z,65.80
2023-06-01T13:21:16.055Z,66.30
2023-06-01T13:23:49.436Z,66.80
2023-06-01T13:26:23.504Z,66.50
2023-06-01T13:28:56.154Z,65.50
2023-06-01T13:31:30.984Z,64.80
2023-06-01T13:34:04.514Z,64.50
2023-06-01T13:36:39.769Z,63.40
2023-06-01T13:39:15.452Z,62.10
2023-06-01T13:41:54.204Z,62.30
2023-06-01T13:44:37.247Z,63.40
2023-06-01T13:47:11.046Z,63.40
2023-06-01T13:49:46.018Z,64.00
2023-06-01T13:52:19.517Z,63.40
2023-06-01T13:54:52.271Z,63.70
2023-06-01T13:57:25.156Z,63.00
2023-06-01T13:59:57.901Z,63.10
2023-06-01T14:02:31.461Z,63.60
2023-06-01T14:05:09.446Z,63.90
2023-06-01T14:07:43.791Z,61.80
2023-06-01T14:10:18.110Z,62.80
2023-06-01T14:12:51.003Z,63.00
2023-06-01T14:15:23.703Z,63.50
2023-06-01T14:17:57.052Z,63.60
2023-06-01T14:20:31.250Z,64.40
2023-06-01T14:23:04.821Z,63.60
2023-06-01T14:25:37.610Z,62.40
2023-06-01T14:28:10.857Z,62.40
2023-06-01T14:30:43.594Z,62.50
2023-06-01T14:33:16.687Z,61.80
2023-06-01T14:35:49.413Z,61.70
2023-06-01T14:38:22.357Z,61.10
2023-06-01T14:40:55.091Z,61.20
2023-06-01T14:43:28.121Z,60.70
2023-06-01T14:46:01.009Z,58.80
2023-06-01T14:48:34.116Z,59.10
2023-06-01T14:51:06.937Z,58.60
2023-06-01T14:53:40.835Z,59.40
2023-06-01T14:56:13.440Z,57.80
2023-06-01T14:58:46.458Z,58.50
2023-06-01T15:01:19.204Z,58.00
2023-06-01T15:03:52.332Z,57.40
2023-06-01T15:06:25.256Z,56.80
2023-06-01T15:08:58.124Z,56.10
2023-06-01T15:11:30.960Z,55.90
2023-06-01T15:14:03.853Z,55.40
2023-06-01T15:16:39.063Z,54.60
2023-06-01T15:19:13.427Z,54.00
2023-06-01T15:21:46.371Z,54.00
2023-06-01T15:24:19.647Z,53.60
2023-06-01T15:26:52.310Z,52.70
2023-06-01T15:29:25.315Z,51.90
2023-06-01T15:31:58.008Z,52.70
2023-06-01T15:34:32.822Z,54.30
2023-06-01T15:37:05.675Z,54.40
2023-06-01T15:39:39.491Z,55.10
2023-06-01T15:42:12.455Z,55.50
2023-06-01T15:44:46.273Z,54.50
2023-06-01T15:47:19.058Z,54.40
2023-06-01T15:49:51.981Z,53.40
2023-06-01T15:52:24.629Z,52.60
2023-06-01T15:54:58.189Z,51.70
2023-06-01T15:57:31.963Z,51.40
2023-06-01T16:00:06.128Z,51.40
2023-06-01T16:02:39.817Z,51.90
2023-06-01T16:05:13.121Z,51.80
2023-06-01T16:07:46.293Z,53.90
2023-06-01T16:10:19.430Z,55.60
2023-06-01T16:12:56.517Z,57.40
2023-06-01T16:15:31.255Z,57.50
2023-06-01T16:18:04.190Z,56.70
2023-06-01T16:20:37.252Z,55.80
2023-06-01T16:23:09.956Z,54.60
2023-06-01T16:25:42.994Z,54.80
2023-06-01T16:28:15.821Z,53.70
2023-06-01T16:30:48.967Z,53.40
2023-06-01T16:33:27.604Z,52.60
2023-06-01T16:36:02.087Z,53.10
2023-06-01T16:38:37.877Z,53.70
2023-06-01T16:41:10.924Z,53.40
2023-06-01T16:43:50.904Z,53.30
2023-06-01T16:46:26.320Z,54.00
2023-06-01T16:49:03.832Z,54.00
2023-06-01T16:51:39.954Z,55.30
2023-06-01T16:54:15.966Z,55.50
2023-06-01T16:56:49.094Z,54.50
2023-06-01T16:59:23.840Z,53.50
2023-06-01T17:01:56.971Z,53.80
2023-06-01T17:04:29.898Z,53.70
2023-06-01T17:07:02.868Z,53.70
2023-06-01T17:09:35.722Z,54.10
2023-06-01T17:12:16.065Z,54.50
2023-06-01T17:14:51.363Z,55.40
2023-06-01T17:17:26.686Z,55.00
2023-06-01T17:20:00.089Z,55.40
2023-06-01T17:22:33.140Z,55.90
2023-06-01T17:25:08.532Z,56.50
2023-06-01T17:27:44.816Z,56.00
2023-06-01T17:30:17.700Z,54.80
2023-06-01T17:32:50.641Z,53.70
2023-06-01T17:35:23.452Z,54.90
2023-06-01T17:37:56.424Z,55.10
2023-06-01T17:40:31.470Z,55.10
2023-06-01T17:43:04.392Z,56.00
2023-06-01T17:45:37.041Z,56.10
2023-06-01T17:48:10.143Z,55.90
2023-06-01T17:50:42.924Z,56.40
2023-06-01T17:53:34.440Z,56.90
2023-06-01T17:56:09.111Z,57.00
2023-06-01T17:58:42.338Z,57.30
2023-06-01T18:01:15.339Z,56.90
2023-06-01T18:03:48.613Z,57.60
2023-06-01T18:06:21.405Z,58.70
2023-06-01T18:08:54.339Z,61.00
2023-06-01T18:11:28.321Z,64.10
2023-06-01T18:14:01.352Z,65.10
2023-06-01T18:16:34.017Z,66.30
2023-06-01T18:19:06.970Z,67.50
2023-06-01T18:21:39.908Z,68.40
2023-06-01T18:24:12.882Z,69.50
2023-06-01T18:26:45.850Z,70.20
2023-06-01T18:29:22.711Z,70.70
2023-06-01T18:32:03.015Z,71.60
2023-06-01T18:34:36.486Z,72.10
2023-06-01T18:37:09.387Z,72.60
2023-06-01T18:39:42.654Z,73.20
2023-06-01T18:42:16.364Z,73.90
2023-06-01T18:44:49.440Z,74.20
2023-06-01T18:47:22.106Z,75.00
2023-06-01T18:49:55.096Z,75.40
2023-06-01T18:52:27.815Z,76.10
2023-06-01T18:55:01.008Z,76.50
2023-06-01T18:57:33.702Z,76.80
2023-06-01T19:00:07.227Z,77.30
2023-06-01T19:02:40.583Z,77.70
2023-06-01T19:05:13.792Z,77.90
2023-06-01T19:07:46.397Z,78.50
2023-06-01T19:10:49.747Z,79.10
2023-06-01T19:13:24.686Z,79.70
2023-06-01T19:15:59.828Z,80.00
2023-06-01T19:18:34.942Z,80.60
2023-06-01T19:21:16.235Z,81.10
2023-06-01T19:23:57.415Z,81.70
2023-06-01T19:26:32.328Z,82.30
2023-06-01T19:29:07.968Z,82.70
2023-06-01T19:31:46.004Z,83.20
2023-06-01T19:34:19.715Z,84.00
2023-06-01T19:36:55.526Z,84.40
2023-06-01T19:39:35.553Z,85.00
2023-06-01T19:42:15.036Z,85.30
2023-06-01T19:44:48.372Z,86.20
2023-06-01T19:47:40.158Z,86.50
2023-06-01T19:50:33.775Z,87.30
2023-06-01T19:53:07.049Z,88.10
2023-06-01T19:55:41.360Z,88.70
2023-06-01T19:58:14.234Z,89.60
2023-06-01T20:00:50.594Z,90.20
2023-06-01T20:03:26.245Z,90.60
2023-06-01T20:05:59.208Z,90.90
2023-06-01T20:08:32.326Z,91.40
2023-06-01T20:11:05.017Z,91.90
2023-06-01T20:13:38.080Z,92.40
2023-06-01T20:16:16.726Z,92.90
2023-06-01T20:18:49.936Z,93.50
2023-06-01T20:21:25.525Z,94.00
2023-06-01T20:23:58.517Z,94.60
2023-06-01T20:26:31.641Z,95.10
2023-06-01T20:29:04.795Z,95.80
2023-06-01T20:31:37.481Z,96.50
2023-06-01T20:34:12.222Z,97.20
2023-06-01T20:36:44.904Z,97.60
2023-06-01T20:39:18.925Z,98.30
2023-06-01T20:42:00.217Z,98.70
2023-06-01T20:44:34.675Z,99.20
2023-06-01T20:47:07.618Z,99.50
2023-06-01T20:49:40.708Z,99.90
2023-06-01T20:52:13.745Z,99.90
2023-06-01T20:54:46.733Z,99.90
2023-06-01T20:57:19.436Z,99.90
2023-06-01T20:59:52.339Z,99.90
2023-06-01T21:02:33.425Z,99.90
2023-06-01T21:05:06.791Z,99.90
2023-06-01T21:07:40.982Z,99.90
2023-06-01T21:10:13.896Z,99.90
2023-06-01T21:12:49.261Z,99.90
2023-06-01T21:15:22.822Z,99.90
2023-06-01T21:17:55.829Z,99.90
2023-06-01T21:20:29.006Z,99.90
2023-06-01T21:23:01.718Z,99.90
2023-06-01T21:25:34.726Z,99.90
2023-06-01T21:28:07.606Z,99.90
2023-06-01T21:30:41.237Z,99.90
2023-06-01T21:33:14.354Z,99.90
2023-06-01T21:35:48.162Z,99.90
2023-06-01T21:38:23.734Z,99.90
2023-06-01T21:40:56.903Z,99.90
2023-06-01T21:43:29.774Z,99.90
2023-06-01T21:46:03.161Z,99.90
2023-06-01T21:48:36.255Z,99.90
2023-06-01T21:51:09.435Z,99.90
2023-06-01T21:53:42.147Z,99.90
2023-06-01T21:56:15.535Z,99.90
2023-06-01T21:58:48.664Z,99.90
2023-06-01T22:01:21.744Z,99.90
2023-06-01T22:03:54.518Z,99.90
2023-06-01T22:06:27.646Z,99.90
2023-06-01T22:09:00.580Z,99.90
2023-06-01T22:11:33.773Z,99.90
2023-06-01T22:14:06.596Z,99.90
2023-06-01T22:16:39.766Z,99.90
2023-06-01T22:19:12.662Z,99.90
2023-06-01T22:21:45.736Z,99.90
2023-06-01T22:24:18.505Z,99.90
2023-06-01T22:26:51.492Z,99.90
2023-06-01T22:29:24.385Z,99.90
2023-06-01T22:31:57.682Z,99.90
2023-06-01T22:34:30.660Z,99.90
2023-06-01T22:37:06.281Z,99.90
2023-06-01T22:39:39.172Z,99.90
2023-06-01T22:42:12.179Z,99.90
2023-06-01T22:44:45.487Z,99.90
2023-06-01T22:47:18.597Z,99.90
2023-06-01T22:49:57.244Z,99.90
2023-06-01T22:52:30.772Z,99.90
2023-06-01T22:55:06.910Z,99.90
2023-06-01T22:57:40.157Z,99.90
2023-06-01T23:00:13.159Z,99.90
2023-06-01T23:02:46.866Z,99.90
2023-06-01T23:05:22.410Z,99.90
2023-06-01T23:07:55.876Z,99.90
2023-06-01T23:10:29.599Z,99.90
2023-06-01T23:13:05.773Z,99.90
2023-06-01T23:15:40.182Z,99.90
2023-06-01T23:18:13.901Z,99.90
2023-06-01T23:20:46.998Z,99.90
2023-06-01T23:23:20.153Z,99.90
2023-06-01T23:25:54.573Z,99.90
2023-06-01T23:28:27.592Z,99.90
2023-06-01T23:31:00.566Z,99.90
2023-06-01T23:33:33.714Z,99.90
2023-06-01T23:36:07.085Z,99.90
2023-06-01T23:38:40.424Z,99.90
2023-06-01T23:41:13.332Z,99.90
2023-06-01T23:43:46.478Z,99.90
2023-06-01T23:46:19.396Z,99.90
2023-06-01T23:48:52.685Z,99.90
2023-06-01T23:51:25.791Z,99.90
2023-06-01T23:53:59.286Z,99.90
2023-06-01T23:56:31.968Z,99.90
2023-06-01T23:59:05.291Z,99.90
